createdAt,value
2023-04-10T00:00:31.481Z,72.26
2023-04-10T00:03:01.424Z,72.13
2023-04-10T00:05:29.543Z,72.01
2023-04-10T00:07:57.393Z,71.96
2023-04-10T00:10:26.512Z,72.74
2023-04-10T00:12:56.692Z,73.57
2023-04-10T00:15:24.779Z,72.89
2023-04-10T00:17:55.193Z,73.30
2023-04-10T00:20:23.651Z,73.64
2023-04-10T00:22:51.478Z,72.70
2023-04-10T00:25:19.608Z,73.79
2023-04-10T00:27:47.458Z,73.77
2023-04-10T00:30:16.995Z,72.69
2023-04-10T00:32:45.021Z,72.09
2023-04-10T00:35:12.852Z,71.84
2023-04-10T00:37:41.635Z,72.04
2023-04-10T00:40:10.305Z,71.55
2023-04-10T00:42:38.399Z,71.69
2023-04-10T00:45:08.516Z,73.58
2023-04-10T00:47:38.747Z,73.37
2023-04-10T00:50:07.776Z,73.04
2023-04-10T00:52:36.302Z,72.26
2023-04-10T00:55:04.933Z,73.11
2023-04-10T00:57:34.385Z,73.41
2023-04-10T01:00:03.017Z,74.29
2023-04-10T01:02:32.294Z,73.50
2023-04-10T01:05:02.295Z,73.48
2023-04-10T01:07:46.494Z,73.03
2023-04-10T01:10:19.597Z,74.12
2023-04-10T01:13:00.948Z,73.79
2023-04-10T01:15:32.893Z,73.53
2023-04-10T01:18:05.576Z,73.69
2023-04-10T01:20:39.307Z,73.40
2023-04-10T01:23:28.713Z,73.78
2023-04-10T01:26:00.101Z,73.41
2023-04-10T01:28:53.223Z,74.02
2023-04-10T01:31:27.347Z,73.48
2023-04-10T01:34:01.163Z,73.12
2023-04-10T01:36:37.125Z,73.25
2023-04-10T01:39:06.742Z,73.12
2023-04-10T01:41:35.196Z,73.14
2023-04-10T01:44:07.089Z,74.11
2023-04-10T01:46:35.285Z,73.62
2023-04-10T01:49:04.252Z,74.07
2023-04-10T01:51:35.430Z,72.56
2023-04-10T01:54:10.120Z,73.07
2023-04-10T01:56:39.526Z,72.82
2023-04-10T01:59:08.991Z,73.07
2023-04-10T02:01:37.002Z,72.86
2023-04-10T02:04:05.069Z,72.34
2023-04-10T02:06:49.573Z,72.91
2023-04-10T02:09:22.950Z,73.10
2023-04-10T02:11:56.026Z,72.51
2023-04-10T02:14:28.515Z,72.36
2023-04-10T02:16:57.459Z,74.70
2023-04-10T02:19:28.059Z,73.13
2023-04-10T02:21:58.064Z,72.70
2023-04-10T02:24:28.052Z,72.64
2023-04-10T02:26:55.895Z,73.49
2023-04-10T02:29:25.930Z,73.09
2023-04-10T02:31:54.004Z,73.12
2023-04-10T02:34:21.987Z,73.35
2023-04-10T02:36:49.814Z,73.35
2023-04-10T02:39:17.667Z,74.26
2023-04-10T02:41:51.842Z,74.59
2023-04-10T02:44:19.782Z,75.14
2023-04-10T02:46:49.096Z,73.69
2023-04-10T02:49:17.840Z,74.10
2023-04-10T02:51:46.167Z,74.22
2023-04-10T02:54:14.199Z,73.65
2023-04-10T02:56:43.707Z,73.77
2023-04-10T02:59:11.567Z,74.40
2023-04-10T03:01:40.805Z,74.63
2023-04-10T03:04:10.390Z,73.58
2023-04-10T03:06:40.929Z,74.43
2023-04-10T03:09:08.899Z,74.94
2023-04-10T03:11:36.820Z,74.20
2023-04-10T03:14:05.724Z,74.75
2023-04-10T03:16:33.721Z,75.16
2023-04-10T03:19:04.280Z,74.42
2023-04-10T03:21:33.829Z,75.86
2023-04-10T03:24:02.753Z,74.93
2023-04-10T03:26:30.743Z,75.03
2023-04-10T03:28:58.914Z,75.50
2023-04-10T03:31:26.793Z,74.98
2023-04-10T03:33:58.518Z,75.60
2023-04-10T03:36:27.451Z,75.05
2023-04-10T03:38:56.763Z,76.23
2023-04-10T03:41:25.757Z,75.97
2023-04-10T03:43:54.315Z,76.60
2023-04-10T03:46:22.781Z,75.83
2023-04-10T03:48:53.800Z,75.55
2023-04-10T03:51:23.461Z,76.17
2023-04-10T03:53:52.308Z,75.97
2023-04-10T03:56:22.574Z,75.92
2023-04-10T03:58:50.613Z,75.82
2023-04-10T04:01:18.503Z,76.02
2023-04-10T04:03:58.581Z,76.91
2023-04-10T04:06:56.065Z,75.73
2023-04-10T04:09:26.545Z,76.11
2023-04-10T04:12:06.125Z,75.65
2023-04-10T04:14:57.706Z,76.59
2023-04-10T04:17:46.290Z,76.81
2023-04-10T04:20:32.894Z,78.12
2023-04-10T04:23:03.509Z,77.79
2023-04-10T04:25:52.700Z,76.92
2023-04-10T04:28:40.579Z,77.71
2023-04-10T04:31:17.308Z,76.89
2023-04-10T04:34:03.587Z,77.52
2023-04-10T04:37:05.447Z,77.17
2023-04-10T04:39:41.591Z,77.55
2023-04-10T04:42:41.567Z,76.72
2023-04-10T04:45:18.225Z,75.87
2023-04-10T04:48:06.277Z,77.30
2023-04-10T04:50:56.951Z,77.05
2023-04-10T04:53:41.547Z,77.72
2023-04-10T04:56:27.775Z,77.42
2023-04-10T04:59:24.774Z,77.64
2023-04-10T05:02:22.499Z,77.11
2023-04-10T05:05:10.263Z,76.69
2023-04-10T05:07:56.500Z,77.37
2023-04-10T05:10:46.553Z,77.44
2023-04-10T05:13:43.549Z,77.08
2023-04-10T05:16:34.314Z,76.17
2023-04-10T05:19:18.688Z,75.26
2023-04-10T05:22:15.834Z,75.49
2023-04-10T05:25:05.618Z,75.06
2023-04-10T05:27:42.236Z,74.59
2023-04-10T05:30:35.928Z,74.72
2023-04-10T05:33:12.198Z,74.34
2023-04-10T05:36:05.889Z,74.33
2023-04-10T05:38:41.108Z,74.28
2023-04-10T05:41:27.749Z,74.00
2023-04-10T05:44:18.464Z,73.21
2023-04-10T05:47:06.105Z,72.50
2023-04-10T05:49:39.576Z,71.58
2023-04-10T05:52:17.772Z,70.95
2023-04-10T05:54:51.831Z,70.98
2023-04-10T05:57:38.063Z,69.99
2023-04-10T06:00:28.512Z,66.70
2023-04-10T06:03:30.578Z,65.74
2023-04-10T06:06:03.440Z,67.62
2023-04-10T06:08:34.689Z,66.13
2023-04-10T06:11:02.718Z,64.42
2023-04-10T06:13:33.377Z,64.89
2023-04-10T06:16:03.110Z,64.29
2023-04-10T06:18:32.328Z,64.26
2023-04-10T06:21:02.021Z,64.11
2023-04-10T06:23:30.550Z,62.84
2023-04-10T06:26:00.127Z,61.38
2023-04-10T06:28:28.195Z,62.26
2023-04-10T06:31:03.420Z,60.71
2023-04-10T06:33:36.618Z,61.18
2023-04-10T06:36:06.947Z,60.29
2023-04-10T06:38:39.876Z,60.86
2023-04-10T06:41:10.437Z,60.22
2023-04-10T06:43:41.188Z,60.94
2023-04-10T06:46:09.123Z,60.53
2023-04-10T06:48:36.924Z,61.58
2023-04-10T06:51:05.285Z,64.95
2023-04-10T06:53:33.160Z,66.08
2023-04-10T06:56:03.423Z,64.79
2023-04-10T06:58:33.021Z,63.85
2023-04-10T07:01:04.435Z,63.16
2023-04-10T07:03:33.795Z,61.62
2023-04-10T07:06:03.192Z,61.69
2023-04-10T07:08:31.156Z,61.88
2023-04-10T07:10:59.127Z,62.16
2023-04-10T07:13:27.008Z,62.72
2023-04-10T07:15:56.267Z,61.77
2023-04-10T07:18:24.127Z,61.61
2023-04-10T07:20:52.430Z,61.09
2023-04-10T07:23:20.488Z,61.54
2023-04-10T07:25:48.355Z,61.71
2023-04-10T07:28:16.255Z,57.95
2023-04-10T07:30:44.094Z,60.73
2023-04-10T07:33:13.563Z,60.72
2023-04-10T07:35:41.668Z,62.04
2023-04-10T07:38:09.541Z,59.76
2023-04-10T07:40:37.368Z,56.87
2023-04-10T07:43:05.354Z,55.56
2023-04-10T07:45:33.712Z,56.96
2023-04-10T07:48:02.702Z,56.78
2023-04-10T07:50:31.963Z,54.43
2023-04-10T07:53:03.459Z,54.75
2023-04-10T07:55:31.422Z,54.75
2023-04-10T07:57:59.300Z,55.38
2023-04-10T08:00:27.115Z,52.16
2023-04-10T08:02:55.208Z,50.43
2023-04-10T08:05:23.379Z,50.06
2023-04-10T08:07:52.700Z,51.28
2023-04-10T08:10:20.627Z,50.45
2023-04-10T08:12:48.484Z,50.76
2023-04-10T08:15:16.330Z,52.60
2023-04-10T08:17:44.212Z,51.75
2023-04-10T08:20:13.162Z,52.23
2023-04-10T08:22:41.036Z,50.84
2023-04-10T08:25:11.140Z,49.99
2023-04-10T08:27:39.032Z,49.78
2023-04-10T08:30:08.230Z,50.06
2023-04-10T08:32:37.486Z,51.41
2023-04-10T08:35:06.079Z,49.86
2023-04-10T08:37:33.916Z,48.71
2023-04-10T08:40:01.744Z,50.01
2023-04-10T08:42:33.459Z,49.56
2023-04-10T08:45:02.486Z,48.27
2023-04-10T08:47:36.588Z,49.10
2023-04-10T08:50:08.606Z,48.05
2023-04-10T08:52:43.805Z,48.52
2023-04-10T08:55:14.384Z,47.90
2023-04-10T08:57:50.800Z,47.42
2023-04-10T09:00:23.559Z,46.43
2023-04-10T09:02:57.945Z,46.11
2023-04-10T09:05:27.950Z,47.73
2023-04-10T09:07:55.926Z,47.13
2023-04-10T09:10:23.949Z,44.69
2023-04-10T09:12:53.682Z,46.75
2023-04-10T09:15:21.565Z,44.49
2023-04-10T09:18:00.350Z,44.53
2023-04-10T09:20:31.240Z,45.88
2023-04-10T09:22:59.345Z,46.17
2023-04-10T09:25:33.944Z,47.75
2023-04-10T09:28:05.123Z,47.38
2023-04-10T09:30:37.791Z,45.71
2023-04-10T09:33:23.548Z,46.55
2023-04-10T09:35:51.883Z,44.51
2023-04-10T09:38:21.104Z,42.91
2023-04-10T09:40:49.855Z,41.05
2023-04-10T09:43:24.325Z,43.74
2023-04-10T09:45:54.147Z,41.95
2023-04-10T09:48:22.885Z,42.48
2023-04-10T09:50:51.414Z,43.49
2023-04-10T09:53:21.168Z,44.58
2023-04-10T09:55:50.342Z,43.63
2023-04-10T09:58:19.032Z,40.86
2023-04-10T10:00:49.812Z,40.30
2023-04-10T10:03:19.687Z,39.34
2023-04-10T10:05:50.424Z,39.25
2023-04-10T10:08:18.939Z,39.28
2023-04-10T10:10:49.003Z,39.05
2023-04-10T10:13:21.590Z,38.44
2023-04-10T10:15:59.430Z,40.72
2023-04-10T10:18:38.334Z,40.03
2023-04-10T10:21:06.990Z,41.60
2023-04-10T10:23:35.408Z,42.39
2023-04-10T10:26:06.706Z,41.83
2023-04-10T10:28:35.002Z,39.62
2023-04-10T10:31:05.843Z,39.62
2023-04-10T10:33:36.986Z,42.61
2023-04-10T10:36:06.044Z,41.57
2023-04-10T10:38:34.680Z,39.73
2023-04-10T10:41:10.479Z,39.79
2023-04-10T10:43:51.775Z,41.05
2023-04-10T10:46:30.349Z,40.07
2023-04-10T10:48:58.780Z,39.71
2023-04-10T10:51:44.386Z,40.13
2023-04-10T10:54:32.459Z,38.55
2023-04-10T10:57:01.048Z,38.82
2023-04-10T10:59:56.775Z,41.08
2023-04-10T11:02:26.265Z,38.53
2023-04-10T11:04:54.201Z,40.41
2023-04-10T11:07:22.202Z,39.63
2023-04-10T11:09:54.616Z,38.59
2023-04-10T11:12:24.452Z,38.69
2023-04-10T11:15:00.339Z,38.85
2023-04-10T11:17:52.139Z,37.82
2023-04-10T11:20:22.079Z,40.26
2023-04-10T11:23:12.677Z,37.96
2023-04-10T11:25:51.304Z,37.22
2023-04-10T11:28:40.764Z,39.63
2023-04-10T11:31:19.711Z,39.27
2023-04-10T11:33:50.029Z,38.57
2023-04-10T11:36:18.649Z,37.31
2023-04-10T11:39:00.450Z,38.62
2023-04-10T11:41:30.644Z,37.67
2023-04-10T11:43:59.390Z,39.45
2023-04-10T11:46:27.572Z,39.16
2023-04-10T11:48:58.495Z,38.21
2023-04-10T11:51:27.234Z,37.54
2023-04-10T11:54:06.214Z,39.28
2023-04-10T11:56:34.154Z,38.71
2023-04-10T11:59:02.677Z,38.97
2023-04-10T12:01:30.573Z,40.04
2023-04-10T12:04:01.079Z,38.38
2023-04-10T12:06:29.561Z,37.71
2023-04-10T12:08:57.764Z,38.51
2023-04-10T12:11:28.709Z,38.27
2023-04-10T12:13:58.881Z,37.56
2023-04-10T12:16:27.420Z,38.19
2023-04-10T12:18:56.199Z,38.73
2023-04-10T12:21:26.261Z,38.94
2023-04-10T12:23:54.299Z,39.38
2023-04-10T12:26:22.247Z,39.03
2023-04-10T12:28:54.659Z,38.40
2023-04-10T12:31:29.078Z,39.34
2023-04-10T12:33:58.055Z,38.86
2023-04-10T12:36:30.163Z,37.72
2023-04-10T12:38:58.766Z,37.42
2023-04-10T12:41:28.204Z,36.78
2023-04-10T12:44:08.226Z,36.11
2023-04-10T12:46:36.716Z,35.65
2023-04-10T12:49:13.153Z,34.98
2023-04-10T12:51:46.670Z,34.93
2023-04-10T12:54:29.324Z,36.62
2023-04-10T12:56:57.694Z,36.61
2023-04-10T12:59:26.477Z,35.62
2023-04-10T13:01:55.161Z,35.49
2023-04-10T13:04:23.959Z,35.13
2023-04-10T13:06:53.758Z,35.74
2023-04-10T13:09:21.854Z,37.56
2023-04-10T13:11:51.670Z,36.84
2023-04-10T13:14:20.103Z,37.50
2023-04-10T13:16:48.013Z,37.69
2023-04-10T13:19:16.115Z,40.17
2023-04-10T13:21:43.981Z,39.60
2023-04-10T13:24:15.320Z,38.76
2023-04-10T13:26:44.669Z,38.92
2023-04-10T13:29:12.554Z,38.38
2023-04-10T13:31:40.607Z,39.19
2023-04-10T13:34:08.463Z,39.78
2023-04-10T13:36:36.370Z,39.54
2023-04-10T13:39:04.491Z,39.15
2023-04-10T13:41:33.842Z,38.68
2023-04-10T13:44:01.724Z,38.91
2023-04-10T13:46:29.912Z,38.58
2023-04-10T13:48:58.582Z,38.07
2023-04-10T13:51:27.834Z,38.16
2023-04-10T13:53:56.237Z,39.72
2023-04-10T13:56:24.466Z,39.68
2023-04-10T13:58:54.102Z,39.65
2023-04-10T14:01:22.368Z,38.74
2023-04-10T14:03:50.504Z,38.87
2023-04-10T14:06:18.358Z,38.41
2023-04-10T14:08:46.248Z,38.46
2023-04-10T14:11:14.070Z,38.54
2023-04-10T14:13:41.928Z,38.60
2023-04-10T14:16:11.857Z,39.59
2023-04-10T14:18:39.773Z,39.33
2023-04-10T14:21:08.196Z,38.80
2023-04-10T14:23:36.042Z,39.88
2023-04-10T14:26:05.830Z,39.19
2023-04-10T14:28:33.779Z,39.30
2023-04-10T14:31:01.888Z,39.08
2023-04-10T14:33:31.223Z,39.74
2023-04-10T14:35:59.129Z,39.65
2023-04-10T14:38:26.979Z,39.37
2023-04-10T14:40:55.275Z,39.30
2023-04-10T14:43:23.147Z,39.13
2023-04-10T14:45:51.016Z,39.04
2023-04-10T14:48:19.834Z,39.39
2023-04-10T14:50:49.545Z,40.45
2023-04-10T14:53:17.510Z,40.04
2023-04-10T14:55:45.346Z,40.44
2023-04-10T14:58:13.194Z,41.22
2023-04-10T15:00:41.082Z,41.09
2023-04-10T15:03:09.045Z,41.48
2023-04-10T15:05:36.922Z,40.78
2023-04-10T15:08:06.262Z,40.44
2023-04-10T15:10:34.108Z,40.43
2023-04-10T15:13:02.024Z,40.54
2023-04-10T15:15:29.935Z,40.87
2023-04-10T15:17:57.815Z,40.66
2023-04-10T15:20:25.751Z,40.48
2023-04-10T15:22:53.541Z,41.08
2023-04-10T15:25:23.068Z,40.87
2023-04-10T15:27:50.907Z,40.92
2023-04-10T15:30:19.230Z,41.20
2023-04-10T15:32:47.075Z,40.65
2023-04-10T15:35:15.031Z,39.71
2023-04-10T15:37:42.915Z,39.68
2023-04-10T15:40:11.441Z,39.36
2023-04-10T15:42:40.648Z,39.39
2023-04-10T15:45:08.994Z,39.17
2023-04-10T15:47:36.898Z,39.36
2023-04-10T15:50:05.384Z,39.75
2023-04-10T15:52:33.873Z,39.43
2023-04-10T15:55:01.738Z,38.91
2023-04-10T15:57:29.643Z,39.72
2023-04-10T16:00:00.616Z,39.48
2023-04-10T16:02:28.998Z,39.83
2023-04-10T16:04:57.018Z,39.02
2023-04-10T16:07:25.082Z,39.48
2023-04-10T16:09:55.107Z,39.68
2023-04-10T16:12:23.029Z,38.92
2023-04-10T16:14:50.823Z,39.07
2023-04-10T16:17:20.109Z,38.47
2023-04-10T16:19:48.041Z,38.52
2023-04-10T16:22:15.878Z,38.31
2023-04-10T16:24:43.713Z,38.82
2023-04-10T16:27:11.589Z,38.40
2023-04-10T16:29:39.436Z,38.70
2023-04-10T16:32:07.326Z,38.96
2023-04-10T16:34:36.623Z,39.44
2023-04-10T16:37:04.441Z,39.06
2023-04-10T16:39:32.307Z,39.30
2023-04-10T16:42:01.314Z,39.35
2023-04-10T16:44:29.161Z,39.41
2023-04-10T16:46:56.981Z,38.74
2023-04-10T16:49:25.042Z,39.25
2023-04-10T16:51:54.228Z,39.72
2023-04-10T16:54:22.103Z,40.00
2023-04-10T16:56:49.931Z,39.55
2023-04-10T16:59:17.794Z,39.46
2023-04-10T17:01:45.848Z,39.70
2023-04-10T17:04:13.782Z,40.00
2023-04-10T17:06:41.668Z,39.52
2023-04-10T17:09:11.142Z,39.24
2023-04-10T17:11:38.986Z,39.16
2023-04-10T17:14:07.402Z,39.06
2023-04-10T17:16:35.397Z,39.33
2023-04-10T17:19:03.523Z,39.63
2023-04-10T17:21:31.483Z,40.03
2023-04-10T17:23:59.462Z,40.15
2023-04-10T17:26:28.653Z,40.45
2023-04-10T17:28:56.841Z,40.29
2023-04-10T17:31:24.785Z,40.37
2023-04-10T17:33:52.644Z,40.99
2023-04-10T17:36:20.852Z,41.21
2023-04-10T17:38:49.441Z,41.05
2023-04-10T17:41:18.204Z,41.17
2023-04-10T17:43:47.436Z,40.80
2023-04-10T17:46:15.896Z,41.01
2023-04-10T17:48:44.273Z,40.50
2023-04-10T17:51:12.356Z,41.02
2023-04-10T17:53:40.380Z,41.33
2023-04-10T17:56:08.974Z,41.26
2023-04-10T17:58:36.834Z,41.34
2023-04-10T18:01:07.244Z,41.24
2023-04-10T18:03:35.257Z,40.98
2023-04-10T18:06:03.247Z,41.45
2023-04-10T18:08:31.136Z,40.80
2023-04-10T18:10:58.981Z,41.74
2023-04-10T18:13:26.834Z,41.75
2023-04-10T18:15:54.684Z,41.51
2023-04-10T18:18:23.879Z,41.64
2023-04-10T18:20:51.701Z,41.32
2023-04-10T18:23:19.553Z,41.73
2023-04-10T18:25:53.372Z,41.24
2023-04-10T18:28:21.286Z,41.16
2023-04-10T18:30:49.211Z,41.19
2023-04-10T18:33:20.681Z,41.37
2023-04-10T18:35:49.939Z,41.72
2023-04-10T18:38:17.848Z,41.78
2023-04-10T18:40:45.772Z,41.82
2023-04-10T18:43:13.681Z,41.72
2023-04-10T18:45:42.186Z,42.53
2023-04-10T18:48:10.247Z,42.57
2023-04-10T18:50:39.270Z,41.96
2023-04-10T18:53:08.479Z,42.10
2023-04-10T18:55:36.320Z,42.36
2023-04-10T18:58:04.257Z,42.72
2023-04-10T19:00:34.137Z,42.72
2023-04-10T19:03:02.437Z,43.38
2023-04-10T19:05:32.587Z,43.08
2023-04-10T19:08:04.061Z,43.43
2023-04-10T19:10:34.119Z,43.11
2023-04-10T19:13:01.962Z,43.08
2023-04-10T19:15:29.874Z,43.29
2023-04-10T19:17:57.801Z,43.54
2023-04-10T19:20:52.610Z,44.25
2023-04-10T19:23:14.019Z,43.48
2023-04-10T19:25:43.769Z,43.09
2023-04-10T19:28:11.645Z,43.32
2023-04-10T19:30:39.497Z,43.57
2023-04-10T19:33:07.415Z,42.89
2023-04-10T19:35:35.365Z,43.29
2023-04-10T19:38:03.243Z,43.08
2023-04-10T19:40:31.798Z,42.33
2023-04-10T19:43:01.961Z,42.79
2023-04-10T19:45:32.232Z,42.61
2023-04-10T19:48:00.422Z,42.76
2023-04-10T19:50:29.518Z,42.71
2023-04-10T19:52:57.512Z,42.81
2023-04-10T19:55:25.460Z,43.01
2023-04-10T19:57:53.511Z,42.49
2023-04-10T20:00:22.806Z,42.86
2023-04-10T20:02:52.156Z,42.67
2023-04-10T20:05:20.309Z,42.45
2023-04-10T20:07:48.152Z,42.44
2023-04-10T20:10:16.006Z,42.37
2023-04-10T20:12:43.829Z,41.92
2023-04-10T20:15:12.477Z,42.28
2023-04-10T20:17:41.806Z,42.58
2023-04-10T20:20:12.241Z,42.32
2023-04-10T20:22:40.050Z,41.96
2023-04-10T20:25:08.902Z,42.18
2023-04-10T20:27:36.858Z,43.09
2023-04-10T20:30:05.658Z,42.83
2023-04-10T20:32:33.487Z,42.42
2023-04-10T20:35:02.723Z,42.15
2023-04-10T20:37:30.584Z,41.66
2023-04-10T20:39:58.489Z,41.99
2023-04-10T20:42:26.322Z,41.67
2023-04-10T20:44:55.383Z,41.84
2023-04-10T20:47:23.248Z,41.90
2023-04-10T20:49:51.066Z,41.96
2023-04-10T20:52:20.253Z,41.37
2023-04-10T20:54:48.153Z,41.53
2023-04-10T20:57:16.081Z,41.49
2023-04-10T20:59:44.141Z,41.50
2023-04-10T21:02:13.207Z,41.52
2023-04-10T21:04:41.163Z,41.60
2023-04-10T21:07:09.021Z,42.12
2023-04-10T21:09:38.193Z,41.39
2023-04-10T21:12:06.199Z,41.54
2023-04-10T21:14:35.761Z,41.66
2023-04-10T21:17:03.772Z,41.86
2023-04-10T21:19:31.643Z,41.59
2023-04-10T21:21:59.474Z,41.81
2023-04-10T21:24:27.361Z,41.25
2023-04-10T21:26:56.593Z,41.25
2023-04-10T21:29:24.459Z,41.82
2023-04-10T21:31:52.338Z,41.80
2023-04-10T21:34:20.211Z,41.64
2023-04-10T21:36:48.046Z,41.40
2023-04-10T21:39:15.939Z,42.00
2023-04-10T21:41:45.084Z,41.60
2023-04-10T21:44:14.352Z,41.86
2023-04-10T21:46:42.325Z,41.98
2023-04-10T21:49:10.359Z,41.67
2023-04-10T21:51:38.310Z,41.68
2023-04-10T21:54:06.245Z,42.18
2023-04-10T21:56:35.535Z,41.93
2023-04-10T21:59:03.481Z,41.94
2023-04-10T22:01:32.767Z,42.24
2023-04-10T22:04:00.685Z,42.73
2023-04-10T22:06:28.548Z,42.82
2023-04-10T22:08:56.507Z,43.00
2023-04-10T22:11:24.544Z,43.29
2023-04-10T22:13:52.849Z,43.34
2023-04-10T22:16:21.590Z,42.99
2023-04-10T22:18:50.867Z,43.21
2023-04-10T22:21:18.851Z,43.03
2023-04-10T22:23:46.665Z,43.07
2023-04-10T22:26:14.474Z,43.44
2023-04-10T22:28:42.362Z,43.25
2023-04-10T22:31:16.375Z,43.50
2023-04-10T22:33:44.416Z,43.58
2023-04-10T22:36:14.104Z,43.75
2023-04-10T22:38:42.029Z,43.82
2023-04-10T22:41:10.870Z,43.70
2023-04-10T22:43:38.767Z,43.42
2023-04-10T22:46:06.732Z,44.10
2023-04-10T22:48:34.701Z,43.57
2023-04-10T22:51:02.513Z,43.87
2023-04-10T22:53:31.715Z,43.95
2023-04-10T22:55:59.546Z,43.50
2023-04-10T22:58:27.443Z,44.05
2023-04-10T23:00:55.262Z,44.28
2023-04-10T23:03:23.171Z,44.68
2023-04-10T23:05:51.636Z,44.65
2023-04-10T23:08:19.442Z,44.60
2023-04-10T23:10:48.645Z,44.41
2023-04-10T23:13:16.490Z,44.85
2023-04-10T23:15:49.641Z,45.42
2023-04-10T23:18:17.616Z,45.37
2023-04-10T23:20:45.664Z,45.21
2023-04-10T23:23:13.513Z,44.87
2023-04-10T23:25:41.329Z,44.99
2023-04-10T23:28:10.725Z,45.77
2023-04-10T23:30:38.723Z,45.25
2023-04-10T23:33:06.734Z,45.14
2023-04-10T23:35:34.827Z,45.16
2023-04-10T23:38:02.884Z,45.15
2023-04-10T23:40:30.765Z,45.66
2023-04-10T23:42:58.719Z,45.95
2023-04-10T23:45:28.257Z,45.57
2023-04-10T23:47:56.297Z,45.54
2023-04-10T23:50:24.485Z,45.48
2023-04-10T23:52:53.034Z,45.65
2023-04-10T23:55:21.614Z,45.78
2023-04-10T23:57:49.476Z,45.73
